sensor_id;sensor_type;location;lat;lon;timestamp;pressure;altitude;pressure_sealevel;temperature;humidity
72677;BME280;60755;51.374;10.662;2022-08-19T00:01:47;96837.91;;;19.06;80.77
72677;BME280;60755;51.374;10.662;2022-08-19T00:04:16;96841.47;;;19.02;80.99
72677;BME280;60755;51.374;10.662;2022-08-19T00:06:44;96844.03;;;19.07;80.11
72677;BME280;60755;51.374;10.662;2022-08-19T00:09:15;96830.84;;;19.02;80.80
72677;BME280;60755;51.374;10.662;2022-08-19T00:11:43;96829.06;;;18.97;81.69
72677;BME280;60755;51.374;10.662;2022-08-19T00:14:11;96829.94;;;18.92;81.29
72677;BME280;60755;51.374;10.662;2022-08-19T00:16:40;96827.88;;;18.89;82.53
72677;BME280;60755;51.374;10.662;2022-08-19T00:19:08;96831.63;;;18.88;82.27
72677;BME280;60755;51.374;10.662;2022-08-19T00:21:35;96831.03;;;18.91;82.63
72677;BME280;60755;51.374;10.662;2022-08-19T00:24:05;96822.66;;;18.84;83.27
72677;BME280;60755;51.374;10.662;2022-08-19T00:26:31;96826.91;;;18.85;83.05
72677;BME280;60755;51.374;10.662;2022-08-19T00:28:58;96827.69;;;18.86;82.84
72677;BME280;60755;51.374;10.662;2022-08-19T00:31:25;96826.69;;;18.82;83.79
72677;BME280;60755;51.374;10.662;2022-08-19T00:33:53;96833.41;;;18.79;83.19
72677;BME280;60755;51.374;10.662;2022-08-19T00:36:20;96838.44;;;18.81;83.73
72677;BME280;60755;51.374;10.662;2022-08-19T00:38:47;96839.53;;;18.80;84.27
72677;BME280;60755;51.374;10.662;2022-08-19T00:41:15;96841.00;;;18.86;84.01
72677;BME280;60755;51.374;10.662;2022-08-19T00:43:58;96843.47;;;18.82;83.86
72677;BME280;60755;51.374;10.662;2022-08-19T00:46:25;96841.78;;;18.86;83.07
72677;BME280;60755;51.374;10.662;2022-08-19T00:48:51;96833.28;;;18.84;83.86
72677;BME280;60755;51.374;10.662;2022-08-19T00:51:17;96831.72;;;18.83;84.49
72677;BME280;60755;51.374;10.662;2022-08-19T00:53:45;96826.91;;;18.85;84.07
72677;BME280;60755;51.374;10.662;2022-08-19T00:56:12;96825.31;;;18.84;84.65
72677;BME280;60755;51.374;10.662;2022-08-19T00:58:38;96825.31;;;18.84;84.66
72677;BME280;60755;51.374;10.662;2022-08-19T01:01:05;96823.16;;;18.86;83.82
72677;BME280;60755;51.374;10.662;2022-08-19T01:03:32;96820.50;;;18.86;84.54
72677;BME280;60755;51.374;10.662;2022-08-19T01:05:59;96817.31;;;18.84;84.09
72677;BME280;60755;51.374;10.662;2022-08-19T01:08:26;96800.75;;;18.87;83.88
72677;BME280;60755;51.374;10.662;2022-08-19T01:10:56;96804.53;;;18.86;84.62
72677;BME280;60755;51.374;10.662;2022-08-19T01:13:25;96803.91;;;18.89;84.25
72677;BME280;60755;51.374;10.662;2022-08-19T01:15:55;96803.72;;;18.86;85.29
72677;BME280;60755;51.374;10.662;2022-08-19T01:18:23;96805.09;;;18.83;85.19
72677;BME280;60755;51.374;10.662;2022-08-19T01:20:52;96798.28;;;18.91;84.13
72677;BME280;60755;51.374;10.662;2022-08-19T01:23:21;96799.66;;;18.88;84.73
72677;BME280;60755;51.374;10.662;2022-08-19T01:26:08;96793.34;;;18.84;85.14
72677;BME280;60755;51.374;10.662;2022-08-19T01:28:36;96789.81;;;18.89;84.70
72677;BME280;60755;51.374;10.662;2022-08-19T01:31:02;96792.09;;;18.82;85.49
72677;BME280;60755;51.374;10.662;2022-08-19T01:33:29;96794.13;;;18.85;84.91
72677;BME280;60755;51.374;10.662;2022-08-19T01:36:03;96795.75;;;18.86;84.08
72677;BME280;60755;51.374;10.662;2022-08-19T01:38:35;96799.38;;;18.76;85.05
72677;BME280;60755;51.374;10.662;2022-08-19T01:41:02;96797.22;;;18.78;85.83
72677;BME280;60755;51.374;10.662;2022-08-19T01:43:29;96791.03;;;18.69;86.40
72677;BME280;60755;51.374;10.662;2022-08-19T01:45:55;96786.28;;;18.66;86.00
72677;BME280;60755;51.374;10.662;2022-08-19T01:48:21;96780.25;;;18.60;86.25
72677;BME280;60755;51.374;10.662;2022-08-19T01:50:48;96772.06;;;18.57;87.66
72677;BME280;60755;51.374;10.662;2022-08-19T01:53:15;96775.13;;;18.50;88.28
72677;BME280;60755;51.374;10.662;2022-08-19T01:55:43;96775.91;;;18.51;88.08
72677;BME280;60755;51.374;10.662;2022-08-19T01:58:14;96781.72;;;18.53;88.58
72677;BME280;60755;51.374;10.662;2022-08-19T02:00:42;96793.56;;;18.47;88.20
72677;BME280;60755;51.374;10.662;2022-08-19T02:03:09;96790.59;;;18.48;87.92
72677;BME280;60755;51.374;10.662;2022-08-19T02:05:36;96799.69;;;18.61;86.79
72677;BME280;60755;51.374;10.662;2022-08-19T02:08:03;96796.50;;;18.59;86.75
72677;BME280;60755;51.374;10.662;2022-08-19T02:10:30;96793.38;;;18.57;87.46
72677;BME280;60755;51.374;10.662;2022-08-19T02:12:58;96780.44;;;18.64;86.44
72677;BME280;60755;51.374;10.662;2022-08-19T02:15:25;96783.72;;;18.61;86.83
72677;BME280;60755;51.374;10.662;2022-08-19T02:17:51;96786.66;;;18.59;87.18
72677;BME280;60755;51.374;10.662;2022-08-19T02:20:18;96783.31;;;18.54;88.15
72677;BME280;60755;51.374;10.662;2022-08-19T02:22:44;96777.91;;;18.45;89.12
72677;BME280;60755;51.374;10.662;2022-08-19T02:25:12;96775.03;;;18.41;88.29
72677;BME280;60755;51.374;10.662;2022-08-19T02:27:41;96773.94;;;18.42;87.61
72677;BME280;60755;51.374;10.662;2022-08-19T02:30:16;96768.53;;;18.48;87.37
72677;BME280;60755;51.374;10.662;2022-08-19T02:32:44;96765.00;;;18.38;89.16
72677;BME280;60755;51.374;10.662;2022-08-19T02:35:11;96762.72;;;18.32;89.45
72677;BME280;60755;51.374;10.662;2022-08-19T02:37:37;96762.03;;;18.26;90.24
72677;BME280;60755;51.374;10.662;2022-08-19T02:40:22;96763.91;;;18.26;90.20
72677;BME280;60755;51.374;10.662;2022-08-19T02:42:49;96755.13;;;18.25;90.13
72677;BME280;60755;51.374;10.662;2022-08-19T02:45:17;96752.56;;;18.20;91.08
72677;BME280;60755;51.374;10.662;2022-08-19T02:47:43;96755.50;;;18.18;91.12
72677;BME280;60755;51.374;10.662;2022-08-19T02:50:09;96759.97;;;18.23;90.76
72677;BME280;60755;51.374;10.662;2022-08-19T02:52:36;96754.16;;;18.21;91.56
72677;BME280;60755;51.374;10.662;2022-08-19T02:55:04;96750.81;;;18.29;91.03
72677;BME280;60755;51.374;10.662;2022-08-19T02:57:31;96751.97;;;18.23;91.60
72677;BME280;60755;51.374;10.662;2022-08-19T02:59:58;96747.53;;;18.18;91.95
72677;BME280;60755;51.374;10.662;2022-08-19T03:02:27;96748.94;;;18.16;92.37
72677;BME280;60755;51.374;10.662;2022-08-19T03:04:55;96759.97;;;18.23;92.15
72677;BME280;60755;51.374;10.662;2022-08-19T03:07:22;96757.78;;;18.25;92.26
72677;BME280;60755;51.374;10.662;2022-08-19T03:09:48;96763.59;;;18.27;92.42
72677;BME280;60755;51.374;10.662;2022-08-19T03:12:14;96771.50;;;18.32;91.65
72677;BME280;60755;51.374;10.662;2022-08-19T03:14:41;96776.09;;;18.27;92.38
72677;BME280;60755;51.374;10.662;2022-08-19T03:17:07;96774.56;;;18.39;90.79
72677;BME280;60755;51.374;10.662;2022-08-19T03:19:35;96784.72;;;18.37;91.15
72677;BME280;60755;51.374;10.662;2022-08-19T03:22:01;96787.06;;;18.39;90.96
72677;BME280;60755;51.374;10.662;2022-08-19T03:24:29;96787.03;;;18.53;90.02
72677;BME280;60755;51.374;10.662;2022-08-19T03:26:56;96791.59;;;18.38;91.49
72677;BME280;60755;51.374;10.662;2022-08-19T03:29:24;96787.91;;;18.21;92.04
72677;BME280;60755;51.374;10.662;2022-08-19T03:31:50;96793.53;;;18.19;93.26
72677;BME280;60755;51.374;10.662;2022-08-19T03:34:20;96791.06;;;18.09;93.39
72677;BME280;60755;51.374;10.662;2022-08-19T03:36:48;96790.00;;;18.10;93.55
72677;BME280;60755;51.374;10.662;2022-08-19T03:39:15;96794.81;;;18.08;93.44
72677;BME280;60755;51.374;10.662;2022-08-19T03:41:43;96798.88;;;18.05;93.48
72677;BME280;60755;51.374;10.662;2022-08-19T03:44:11;96809.22;;;18.07;93.29
72677;BME280;60755;51.374;10.662;2022-08-19T03:46:37;96817.06;;;18.12;92.87
72677;BME280;60755;51.374;10.662;2022-08-19T03:49:04;96804.69;;;18.07;93.56
72677;BME280;60755;51.374;10.662;2022-08-19T03:51:34;96803.47;;;18.00;93.83
72677;BME280;60755;51.374;10.662;2022-08-19T03:54:05;96795.78;;;17.98;94.14
72677;BME280;60755;51.374;10.662;2022-08-19T03:56:33;96791.25;;;17.99;93.94
72677;BME280;60755;51.374;10.662;2022-08-19T03:59:00;96795.88;;;17.93;93.61
72677;BME280;60755;51.374;10.662;2022-08-19T04:01:28;96805.72;;;17.93;93.59
72677;BME280;60755;51.374;10.662;2022-08-19T04:03:55;96806.50;;;17.93;93.50
72677;BME280;60755;51.374;10.662;2022-08-19T04:06:24;96806.81;;;17.92;92.88
72677;BME280;60755;51.374;10.662;2022-08-19T04:08:53;96806.59;;;17.88;92.78
72677;BME280;60755;51.374;10.662;2022-08-19T04:11:23;96814.84;;;17.86;92.82
72677;BME280;60755;51.374;10.662;2022-08-19T04:13:50;96810.34;;;17.87;92.99
72677;BME280;60755;51.374;10.662;2022-08-19T04:16:17;96815.56;;;17.92;91.79
72677;BME280;60755;51.374;10.662;2022-08-19T04:18:45;96808.31;;;17.98;91.43
72677;BME280;60755;51.374;10.662;2022-08-19T04:21:16;96816.28;;;17.98;91.90
72677;BME280;60755;51.374;10.662;2022-08-19T04:23:42;96817.38;;;17.97;91.39
72677;BME280;60755;51.374;10.662;2022-08-19T04:26:12;96806.31;;;18.03;91.11
72677;BME280;60755;51.374;10.662;2022-08-19T04:28:40;96809.88;;;17.99;90.46
72677;BME280;60755;51.374;10.662;2022-08-19T04:31:12;96804.44;;;17.90;91.08
72677;BME280;60755;51.374;10.662;2022-08-19T04:33:39;96797.25;;;17.91;90.87
72677;BME280;60755;51.374;10.662;2022-08-19T04:36:06;96797.25;;;17.91;91.08
72677;BME280;60755;51.374;10.662;2022-08-19T04:38:33;96789.78;;;17.93;90.36
72677;BME280;60755;51.374;10.662;2022-08-19T04:40:59;96794.00;;;17.94;89.71
72677;BME280;60755;51.374;10.662;2022-08-19T04:43:45;96802.56;;;17.91;90.55
72677;BME280;60755;51.374;10.662;2022-08-19T04:46:14;96809.75;;;17.90;90.33
72677;BME280;60755;51.374;10.662;2022-08-19T04:48:42;96805.13;;;17.96;89.71
72677;BME280;60755;51.374;10.662;2022-08-19T04:51:10;96818.53;;;17.91;89.66
72677;BME280;60755;51.374;10.662;2022-08-19T04:53:39;96820.28;;;17.95;89.43
72677;BME280;60755;51.374;10.662;2022-08-19T04:56:08;96828.00;;;17.97;88.69
72677;BME280;60755;51.374;10.662;2022-08-19T04:58:36;96822.56;;;18.02;88.49
72677;BME280;60755;51.374;10.662;2022-08-19T05:01:04;96828.00;;;17.97;87.97
72677;BME280;60755;51.374;10.662;2022-08-19T05:03:31;96825.84;;;17.99;88.22
72677;BME280;60755;51.374;10.662;2022-08-19T05:05:59;96821.31;;;17.99;87.89
72677;BME280;60755;51.374;10.662;2022-08-19T05:08:30;96829.19;;;18.04;87.50
72677;BME280;60755;51.374;10.662;2022-08-19T05:10:57;96829.31;;;18.13;86.38
72677;BME280;60755;51.374;10.662;2022-08-19T05:13:23;96829.59;;;18.11;86.78
72677;BME280;60755;51.374;10.662;2022-08-19T05:15:53;96818.00;;;18.21;85.69
72677;BME280;60755;51.374;10.662;2022-08-19T05:18:21;96823.88;;;18.18;85.23
72677;BME280;60755;51.374;10.662;2022-08-19T05:21:07;96818.75;;;18.08;86.21
72677;BME280;60755;51.374;10.662;2022-08-19T05:23:51;96814.81;;;18.19;85.33
72677;BME280;60755;51.374;10.662;2022-08-19T05:26:17;96809.13;;;18.26;84.62
72677;BME280;60755;51.374;10.662;2022-08-19T05:28:44;96812.28;;;18.28;84.69
72677;BME280;60755;51.374;10.662;2022-08-19T05:31:10;96818.00;;;18.21;84.55
72677;BME280;60755;51.374;10.662;2022-08-19T05:33:38;96817.47;;;18.19;84.52
72677;BME280;60755;51.374;10.662;2022-08-19T05:36:06;96827.63;;;18.17;85.11
72677;BME280;60755;51.374;10.662;2022-08-19T05:38:32;96824.91;;;18.22;84.61
72677;BME280;60755;51.374;10.662;2022-08-19T05:40:59;96825.38;;;18.24;84.00
72677;BME280;60755;51.374;10.662;2022-08-19T05:43:25;96836.44;;;18.31;84.23
72677;BME280;60755;51.374;10.662;2022-08-19T05:45:52;96840.84;;;18.36;84.55
72677;BME280;60755;51.374;10.662;2022-08-19T05:48:18;96844.44;;;18.45;83.40
72677;BME280;60755;51.374;10.662;2022-08-19T05:50:46;96850.53;;;18.45;84.31
72677;BME280;60755;51.374;10.662;2022-08-19T05:53:15;96846.78;;;18.47;83.52
72677;BME280;60755;51.374;10.662;2022-08-19T05:55:42;96854.47;;;18.48;83.34
72677;BME280;60755;51.374;10.662;2022-08-19T05:58:08;96842.66;;;18.40;83.36
72677;BME280;60755;51.374;10.662;2022-08-19T06:00:35;96833.56;;;18.41;83.15
72677;BME280;60755;51.374;10.662;2022-08-19T06:03:01;96835.75;;;18.39;83.26
72677;BME280;60755;51.374;10.662;2022-08-19T06:05:28;96843.44;;;18.55;82.35
72677;BME280;60755;51.374;10.662;2022-08-19T06:07:57;96842.34;;;18.56;81.87
72677;BME280;60755;51.374;10.662;2022-08-19T06:10:24;96843.22;;;18.51;80.75
72677;BME280;60755;51.374;10.662;2022-08-19T06:12:51;96853.19;;;18.45;78.91
72677;BME280;60755;51.374;10.662;2022-08-19T06:15:17;96846.41;;;18.53;78.78
72677;BME280;60755;51.374;10.662;2022-08-19T06:17:44;96854.66;;;18.52;76.80
72677;BME280;60755;51.374;10.662;2022-08-19T06:20:13;96864.03;;;18.49;75.43
72677;BME280;60755;51.374;10.662;2022-08-19T06:22:41;96867.53;;;18.77;nan
72677;BME280;60755;51.374;10.662;2022-08-19T06:25:10;96866.94;;;18.80;74.75
72677;BME280;60755;51.374;10.662;2022-08-19T06:27:38;96870.91;;;18.69;71.56
72677;BME280;60755;51.374;10.662;2022-08-19T06:30:05;96880.72;;;18.55;70.82
72677;BME280;60755;51.374;10.662;2022-08-19T06:32:32;96880.50;;;18.51;71.14
72677;BME280;60755;51.374;10.662;2022-08-19T06:34:58;96880.25;;;18.66;69.76
72677;BME280;60755;51.374;10.662;2022-08-19T06:37:24;96892.06;;;18.74;69.85
72677;BME280;60755;51.374;10.662;2022-08-19T06:39:51;96891.22;;;18.79;70.76
72677;BME280;60755;51.374;10.662;2022-08-19T06:42:18;96895.84;;;18.73;69.08
72677;BME280;60755;51.374;10.662;2022-08-19T06:44:47;96900.91;;;18.56;69.23
72677;BME280;60755;51.374;10.662;2022-08-19T06:47:17;96903.97;;;18.63;69.69
72677;BME280;60755;51.374;10.662;2022-08-19T06:49:44;96903.69;;;18.64;70.38
72677;BME280;60755;51.374;10.662;2022-08-19T06:52:12;96905.00;;;18.67;69.49
72677;BME280;60755;51.374;10.662;2022-08-19T06:54:40;96916.81;;;18.61;69.56
72677;BME280;60755;51.374;10.662;2022-08-19T06:57:07;96914.47;;;18.73;70.06
72677;BME280;60755;51.374;10.662;2022-08-19T06:59:35;96910.31;;;18.67;70.35
72677;BME280;60755;51.374;10.662;2022-08-19T07:02:03;96912.47;;;18.65;69.51
72677;BME280;60755;51.374;10.662;2022-08-19T07:04:32;96914.38;;;18.78;69.50
72677;BME280;60755;51.374;10.662;2022-08-19T07:07:01;96922.16;;;18.75;70.55
72677;BME280;60755;51.374;10.662;2022-08-19T07:09:28;96924.72;;;18.80;69.36
72677;BME280;60755;51.374;10.662;2022-08-19T07:11:55;96913.19;;;18.84;69.01
72677;BME280;60755;51.374;10.662;2022-08-19T07:14:25;96907.28;;;18.87;70.00
72677;BME280;60755;51.374;10.662;2022-08-19T07:16:55;96906.88;;;18.94;68.96
72677;BME280;60755;51.374;10.662;2022-08-19T07:19:23;96911.03;;;18.86;68.95
72677;BME280;60755;51.374;10.662;2022-08-19T07:21:51;96920.00;;;19.04;69.47
72677;BME280;60755;51.374;10.662;2022-08-19T07:24:19;96920.97;;;19.08;69.15
72677;BME280;60755;51.374;10.662;2022-08-19T07:26:48;96926.72;;;18.88;68.64
72677;BME280;60755;51.374;10.662;2022-08-19T07:29:15;96931.25;;;19.01;69.70
72677;BME280;60755;51.374;10.662;2022-08-19T07:31:42;96927.91;;;18.95;68.58
72677;BME280;60755;51.374;10.662;2022-08-19T07:34:11;96927.56;;;18.83;69.03
72677;BME280;60755;51.374;10.662;2022-08-19T07:36:40;96931.66;;;18.94;69.02
72677;BME280;60755;51.374;10.662;2022-08-19T07:39:14;96929.94;;;18.98;69.12
72677;BME280;60755;51.374;10.662;2022-08-19T07:41:42;96932.94;;;19.11;68.20
72677;BME280;60755;51.374;10.662;2022-08-19T07:44:09;96936.78;;;19.18;67.74
72677;BME280;60755;51.374;10.662;2022-08-19T07:46:41;96940.31;;;19.14;67.84
72677;BME280;60755;51.374;10.662;2022-08-19T07:49:11;96944.38;;;19.11;66.92
72677;BME280;60755;51.374;10.662;2022-08-19T07:51:42;96952.47;;;19.20;67.06
72677;BME280;60755;51.374;10.662;2022-08-19T07:54:09;96952.53;;;19.15;67.11
72677;BME280;60755;51.374;10.662;2022-08-19T07:56:37;96945.84;;;19.17;67.12
72677;BME280;60755;51.374;10.662;2022-08-19T07:59:03;96937.16;;;19.12;67.53
72677;BME280;60755;51.374;10.662;2022-08-19T08:01:30;96944.47;;;19.20;67.38
72677;BME280;60755;51.374;10.662;2022-08-19T08:03:57;96945.25;;;19.07;67.31
72677;BME280;60755;51.374;10.662;2022-08-19T08:06:43;96949.00;;;19.06;67.06
72677;BME280;60755;51.374;10.662;2022-08-19T08:09:30;96950.78;;;19.10;67.03
72677;BME280;60755;51.374;10.662;2022-08-19T08:11:59;96962.22;;;18.97;66.30
72677;BME280;60755;51.374;10.662;2022-08-19T08:14:28;96954.25;;;19.11;65.62
72677;BME280;60755;51.374;10.662;2022-08-19T08:16:56;96950.19;;;19.13;65.54
72677;BME280;60755;51.374;10.662;2022-08-19T08:19:24;96964.88;;;19.24;64.32
72677;BME280;60755;51.374;10.662;2022-08-19T08:21:54;96955.38;;;19.32;64.34
72677;BME280;60755;51.374;10.662;2022-08-19T08:24:21;96958.88;;;19.19;64.21
72677;BME280;60755;51.374;10.662;2022-08-19T08:26:48;96959.28;;;19.26;64.60
72677;BME280;60755;51.374;10.662;2022-08-19T08:29:14;96969.94;;;19.26;65.09
72677;BME280;60755;51.374;10.662;2022-08-19T08:31:43;96972.28;;;19.14;64.92
72677;BME280;60755;51.374;10.662;2022-08-19T08:34:11;96967.66;;;19.19;65.61
72677;BME280;60755;51.374;10.662;2022-08-19T08:36:38;96973.06;;;19.28;65.31
72677;BME280;60755;51.374;10.662;2022-08-19T08:39:08;96966.53;;;19.48;65.17
72677;BME280;60755;51.374;10.662;2022-08-19T08:41:44;96976.66;;;19.87;64.67
72677;BME280;60755;51.374;10.662;2022-08-19T08:44:15;96979.56;;;19.63;64.66
72677;BME280;60755;51.374;10.662;2022-08-19T08:46:47;96978.78;;;19.63;65.53
72677;BME280;60755;51.374;10.662;2022-08-19T08:49:23;96989.63;;;19.52;65.56
72677;BME280;60755;51.374;10.662;2022-08-19T08:51:56;96984.81;;;19.68;64.91
72677;BME280;60755;51.374;10.662;2022-08-19T08:54:32;96982.69;;;19.79;65.35
72677;BME280;60755;51.374;10.662;2022-08-19T08:56:59;96995.84;;;19.89;64.38
72677;BME280;60755;51.374;10.662;2022-08-19T08:59:28;96995.13;;;19.97;65.24
72677;BME280;60755;51.374;10.662;2022-08-19T09:01:57;97005.81;;;19.83;65.46
72677;BME280;60755;51.374;10.662;2022-08-19T09:04:23;97015.47;;;19.93;64.55
72677;BME280;60755;51.374;10.662;2022-08-19T09:06:55;97024.50;;;19.83;65.08
72677;BME280;60755;51.374;10.662;2022-08-19T09:09:30;97010.34;;;19.55;65.67
72677;BME280;60755;51.374;10.662;2022-08-19T09:12:05;97012.03;;;19.24;65.85
72677;BME280;60755;51.374;10.662;2022-08-19T09:14:39;97011.19;;;19.42;66.33
72677;BME280;60755;51.374;10.662;2022-08-19T09:17:07;97021.72;;;19.47;66.05
72677;BME280;60755;51.374;10.662;2022-08-19T09:19:34;97019.25;;;19.37;67.02
72677;BME280;60755;51.374;10.662;2022-08-19T09:22:01;97018.09;;;19.43;66.19
72677;BME280;60755;51.374;10.662;2022-08-19T09:24:29;97015.09;;;19.31;66.90
72677;BME280;60755;51.374;10.662;2022-08-19T09:26:56;97015.72;;;19.28;67.23
72677;BME280;60755;51.374;10.662;2022-08-19T09:29:22;97016.78;;;19.13;66.55
72677;BME280;60755;51.374;10.662;2022-08-19T09:31:49;97017.88;;;19.40;66.40
72677;BME280;60755;51.374;10.662;2022-08-19T09:34:15;97006.91;;;19.14;67.15
72677;BME280;60755;51.374;10.662;2022-08-19T09:36:45;97018.84;;;19.16;66.95
72677;BME280;60755;51.374;10.662;2022-08-19T09:39:11;97021.03;;;19.28;67.04
72677;BME280;60755;51.374;10.662;2022-08-19T09:41:39;97025.97;;;19.48;66.32
72677;BME280;60755;51.374;10.662;2022-08-19T09:44:05;97019.25;;;19.65;66.29
72677;BME280;60755;51.374;10.662;2022-08-19T09:46:32;97026.78;;;19.76;64.89
72677;BME280;60755;51.374;10.662;2022-08-19T09:49:00;97023.19;;;19.81;64.96
72677;BME280;60755;51.374;10.662;2022-08-19T09:51:27;97025.91;;;19.67;64.71
72677;BME280;60755;51.374;10.662;2022-08-19T09:53:59;97024.72;;;19.60;65.24
72677;BME280;60755;51.374;10.662;2022-08-19T09:56:25;97017.28;;;19.70;64.95
72677;BME280;60755;51.374;10.662;2022-08-19T09:58:53;97017.81;;;19.59;65.17
72677;BME280;60755;51.374;10.662;2022-08-19T10:01:22;97013.34;;;19.81;63.78
72677;BME280;60755;51.374;10.662;2022-08-19T10:03:49;96999.03;;;19.64;64.23
72677;BME280;60755;51.374;10.662;2022-08-19T10:06:17;97001.50;;;19.74;63.53
72677;BME280;60755;51.374;10.662;2022-08-19T10:08:44;97000.28;;;20.16;63.06
72677;BME280;60755;51.374;10.662;2022-08-19T10:11:11;96996.22;;;20.41;61.30
72677;BME280;60755;51.374;10.662;2022-08-19T10:13:41;96993.44;;;20.68;61.28
72677;BME280;60755;51.374;10.662;2022-08-19T10:16:13;96995.03;;;20.70;60.51
72677;BME280;60755;51.374;10.662;2022-08-19T10:18:41;96993.09;;;20.61;60.70
72677;BME280;60755;51.374;10.662;2022-08-19T10:21:12;97000.19;;;20.97;59.87
72677;BME280;60755;51.374;10.662;2022-08-19T10:23:41;97000.91;;;20.80;59.75
72677;BME280;60755;51.374;10.662;2022-08-19T10:26:11;97003.13;;;20.56;59.38
72677;BME280;60755;51.374;10.662;2022-08-19T10:28:38;97001.13;;;20.61;59.48
72677;BME280;60755;51.374;10.662;2022-08-19T10:31:05;97002.44;;;20.50;59.32
72677;BME280;60755;51.374;10.662;2022-08-19T10:33:34;96997.28;;;20.31;58.65
72677;BME280;60755;51.374;10.662;2022-08-19T10:36:02;97009.69;;;20.36;58.78
72677;BME280;60755;51.374;10.662;2022-08-19T10:38:29;96998.16;;;20.27;58.50
72677;BME280;60755;51.374;10.662;2022-08-19T10:40:56;96995.88;;;20.79;58.32
72677;BME280;60755;51.374;10.662;2022-08-19T10:43:23;96997.63;;;20.61;58.50
72677;BME280;60755;51.374;10.662;2022-08-19T10:45:52;96988.66;;;20.79;57.55
72677;BME280;60755;51.374;10.662;2022-08-19T10:48:19;96986.28;;;21.17;55.90
72677;BME280;60755;51.374;10.662;2022-08-19T10:50:47;96989.59;;;21.23;56.02
72677;BME280;60755;51.374;10.662;2022-08-19T10:53:31;96980.47;;;21.15;55.54
72677;BME280;60755;51.374;10.662;2022-08-19T10:55:58;96979.97;;;21.53;55.04
72677;BME280;60755;51.374;10.662;2022-08-19T10:58:42;96976.28;;;21.32;55.75
72677;BME280;60755;51.374;10.662;2022-08-19T11:01:09;96976.97;;;21.06;54.68
72677;BME280;60755;51.374;10.662;2022-08-19T11:03:36;96974.66;;;21.70;53.32
72677;BME280;60755;51.374;10.662;2022-08-19T11:06:06;96971.56;;;22.20;52.61
72677;BME280;60755;51.374;10.662;2022-08-19T11:08:33;96969.81;;;22.33;51.93
72677;BME280;60755;51.374;10.662;2022-08-19T11:11:01;96973.91;;;22.39;51.76
72677;BME280;60755;51.374;10.662;2022-08-19T11:13:29;96974.72;;;22.22;51.55
72677;BME280;60755;51.374;10.662;2022-08-19T11:16:00;96974.88;;;22.26;52.58
72677;BME280;60755;51.374;10.662;2022-08-19T11:18:27;96972.97;;;22.18;52.83
72677;BME280;60755;51.374;10.662;2022-08-19T11:20:53;96970.31;;;22.09;53.71
72677;BME280;60755;51.374;10.662;2022-08-19T11:23:21;96981.47;;;22.20;54.82
72677;BME280;60755;51.374;10.662;2022-08-19T11:25:49;96978.00;;;22.37;53.76
72677;BME280;60755;51.374;10.662;2022-08-19T11:28:15;96984.63;;;22.39;53.16
72677;BME280;60755;51.374;10.662;2022-08-19T11:30:41;96976.91;;;22.20;52.96
72677;BME280;60755;51.374;10.662;2022-08-19T11:33:08;96975.94;;;22.42;53.47
72677;BME280;60755;51.374;10.662;2022-08-19T11:35:38;96974.41;;;22.15;53.76
72677;BME280;60755;51.374;10.662;2022-08-19T11:38:05;96983.84;;;22.39;53.10
72677;BME280;60755;51.374;10.662;2022-08-19T11:40:33;96981.75;;;22.44;52.08
72677;BME280;60755;51.374;10.662;2022-08-19T11:42:59;96985.25;;;22.36;52.47
72677;BME280;60755;51.374;10.662;2022-08-19T11:45:27;96985.88;;;22.42;52.81
72677;BME280;60755;51.374;10.662;2022-08-19T11:47:53;96987.50;;;22.98;52.31
72677;BME280;60755;51.374;10.662;2022-08-19T11:50:20;96977.97;;;23.18;51.17
72677;BME280;60755;51.374;10.662;2022-08-19T11:52:48;96975.25;;;22.71;53.12
72677;BME280;60755;51.374;10.662;2022-08-19T11:55:15;96978.72;;;22.72;52.86
72677;BME280;60755;51.374;10.662;2022-08-19T11:57:42;96976.56;;;22.48;53.09
72677;BME280;60755;51.374;10.662;2022-08-19T12:00:10;96967.88;;;22.59;53.31
72677;BME280;60755;51.374;10.662;2022-08-19T12:02:37;96967.13;;;22.42;54.81
72677;BME280;60755;51.374;10.662;2022-08-19T12:05:05;96972.13;;;23.16;54.03
72677;BME280;60755;51.374;10.662;2022-08-19T12:07:32;96978.16;;;23.72;51.37
72677;BME280;60755;51.374;10.662;2022-08-19T12:09:59;96977.88;;;23.35;51.09
72677;BME280;60755;51.374;10.662;2022-08-19T12:12:26;96972.88;;;22.87;50.81
72677;BME280;60755;51.374;10.662;2022-08-19T12:14:54;96973.31;;;22.98;50.86
72677;BME280;60755;51.374;10.662;2022-08-19T12:17:23;96973.59;;;23.05;49.98
72677;BME280;60755;51.374;10.662;2022-08-19T12:19:50;96971.88;;;23.38;49.21
72677;BME280;60755;51.374;10.662;2022-08-19T12:22:16;96967.38;;;23.51;47.64
72677;BME280;60755;51.374;10.662;2022-08-19T12:24:42;96968.28;;;23.34;48.03
72677;BME280;60755;51.374;10.662;2022-08-19T12:27:09;96968.53;;;23.12;47.21
72677;BME280;60755;51.374;10.662;2022-08-19T12:29:35;96961.69;;;23.23;48.56
72677;BME280;60755;51.374;10.662;2022-08-19T12:32:03;96971.28;;;23.62;48.83
72677;BME280;60755;51.374;10.662;2022-08-19T12:34:31;96966.53;;;23.30;47.53
72677;BME280;60755;51.374;10.662;2022-08-19T12:37:00;96966.38;;;22.97;49.73
72677;BME280;60755;51.374;10.662;2022-08-19T12:39:27;96963.41;;;23.28;48.96
72677;BME280;60755;51.374;10.662;2022-08-19T12:41:53;96968.25;;;23.05;50.33
72677;BME280;60755;51.374;10.662;2022-08-19T12:44:20;96964.44;;;23.06;50.36
72677;BME280;60755;51.374;10.662;2022-08-19T12:46:47;96953.19;;;23.21;51.09
72677;BME280;60755;51.374;10.662;2022-08-19T12:49:15;96956.94;;;23.29;51.31
72677;BME280;60755;51.374;10.662;2022-08-19T12:51:42;96959.59;;;23.58;50.43
72677;BME280;60755;51.374;10.662;2022-08-19T12:54:08;96942.34;;;23.38;51.91
72677;BME280;60755;51.374;10.662;2022-08-19T12:56:36;96943.25;;;23.72;51.26